Nearby METAR Reports

 

KHOB - Hobbs, New Mexico, USA
Distance from station: S 40mi, 65km
Updated: Fri, 02-Dec-2022 8:50am MST
Clear
Clear
 Wind from SSW
Wind: SSW 21 mph , 33 km/h
Temperature: 61°F , 16°C
Dew Point: 39°F , 4°C
Humidity: 45%
Barometer: 30.05 inHg , 1017.6 hPa
Clouds: Clear
Visibility: 10 miles , 16 km
2022/12/02 15:50 KHOB 021550Z 20018KT 10SM SKC 16/04 A3005
KGNC - Seminole, Texas, USA
Distance from station: SE 55mi, 89km
Updated: Fri, 02-Dec-2022 9:10am MST
Clear
Clear
 Wind from SW
Wind: SW 7 mph , 11 km/h
Temperature: 55°F , 13°C
Dew Point: 41°F , 5°C
Humidity: 59%
Barometer: 30.08 inHg , 1018.6 hPa
Clouds: Clear
Visibility: 10 miles , 16 km
2022/12/02 16:10 KGNC 021610Z AUTO 22006KT 10SM CLR 13/05 A3008 RMK AO2 T01270050
 
KROW - Roswell, New Mexico, USA
Distance from station: W 67mi, 108km
Updated: Fri, 02-Dec-2022 8:51am MST
Clear
Clear
 Wind from SSE
Wind: SSE 3 mph , 6 km/h
Temperature: 50°F , 10°C
Dew Point: 37°F , 3°C
Humidity: 62%
Barometer: 30.02 inHg , 1016.6 hPa
Clouds: Clear
Visibility: 10 miles , 16 km
2022/12/02 15:51 KROW 021551Z 16003KT 10SM CLR 10/03 A3002 RMK AO2 SLP144 T01000028
KATS - Artesia, New Mexico, USA
Distance from station: WSW 71mi, 114km
Updated: Fri, 02-Dec-2022 9:15am MST
Clear
Clear
 Wind from SSW
Wind: SSW 18 mph , 30 km/h
Temperature: 59°F , 15°C
Dew Point: 36°F , 2°C
Humidity: 42%
Barometer: 30.05 inHg , 1017.6 hPa
Clouds: Clear
Visibility: 10 miles , 16 km
2022/12/02 16:15 KATS 021615Z AUTO 21016KT 10SM CLR 15/02 A3005 RMK AO2
 
KCVS - Cannon AFB,Clovis, New Mexico, USA
Distance from station: 0 78mi, 125km
Updated: Fri, 02-Dec-2022 8:55am MST
Clear
Clear
 Wind from W
Wind: W 12 mph , 19 km/h
Temperature: 46°F , 8°C
Wind Chill: 40°F , 4°C
Dew Point: 37°F , 3°C
Humidity: 71%
Barometer: 29.99 inHg , 1015.6 hPa
Clouds: Clear
Visibility: 10 miles , 16 km
2022/12/02 15:55 KCVS 021555Z AUTO 28010KT 10SM CLR 08/03 A2999 RMK AO2 SLP150 T00790028 $
KE11 - Andrews, Texas, USA
Distance from station: SE 78mi, 126km
Updated: Wed, 30-Nov-2022 12:35pm MST
NOT Current
Clear
Clear
 Wind from SE
Wind: SE 7 mph , 11 km/h
Temperature: 41°F , 5°C
Wind Chill: 36°F , 2°C
Dew Point: 19°F , -7°C
Humidity: 42%
Barometer: 30.35 inHg , 1027.8 hPa
Clouds: Clear
Visibility: 10 miles , 16 km
2022/11/30 19:35 KE11 301935Z AUTO 13006KT 10SM CLR 05/M07 A3035 RMK AO2 T00491068
 
KCNM - Carlsbad, New Mexico, USA
Distance from station: SW 82mi, 132km
Updated: Fri, 02-Dec-2022 8:53am MST
Clear
Clear
 Wind from ESE
Wind: ESE 5 mph , 7 km/h
Temperature: 46°F , 8°C
Wind Chill: 44°F , 7°C
Dew Point: 39°F , 4°C
Humidity: 76%
Barometer: 30.05 inHg , 1017.6 hPa
Clouds: Clear
Visibility: 10 miles , 16 km
2022/12/02 15:53 KCNM 021553Z AUTO 11004KT 10SM CLR 08/04 A3005 RMK AO2 SLP160 T00830044
KCVN - Clovis Muni, New Mexico, USA
Distance from station: N 83mi, 133km
Updated: Fri, 02-Dec-2022 8:56am MST
Clear
Clear
 Wind from WSW
Wind: WSW 18 mph , 30 km/h
Temperature: 54°F , 12°C
Dew Point: 30°F , -1°C
Humidity: 41%
Barometer: 29.99 inHg , 1015.6 hPa
Clouds: Clear
Visibility: 10 miles , 16 km
2022/12/02 15:56 KCVN 021556Z AUTO 25016KT 10SM CLR 12/M01 A2999 RMK AO2 SLP152 T01171011
 
KLBB - Lubbock, Texas, USA
Distance from station: ENE 92mi, 149km
Updated: Fri, 02-Dec-2022 8:53am MST
Mostly cloudy
Mostly cloudy
 Wind from WSW
Wind: WSW 15 mph , 24 km/h
Temperature: 55°F , 13°C
Dew Point: 39°F , 4°C
Humidity: 55%
Barometer: 29.99 inHg , 1015.6 hPa
Clouds: Mostly cloudy
Visibility: 10 miles , 16 km
Cloud details: Few Clouds 25000 ft
Mostly cloudy 28000 ft
2022/12/02 15:53 KLBB 021553Z 24013KT 10SM FEW250 BKN280 13/04 A2999 RMK AO2 SLP137 T01330044
KINK - Wink, Texas, USA
Distance from station: S 101mi, 163km
Updated: Fri, 02-Dec-2022 7:53am MST
NOT Current
Clear
Clear
 Wind from calm
Wind: Calm
Temperature: 39°F , 4°C
Dew Point: 37°F , 3°C
Humidity: 93%
Barometer: 30.06 inHg , 1017.9 hPa
Clouds: Clear
Visibility: 10 miles , 16 km
2022/12/02 14:53 KINK 021453Z AUTO 00000KT 10SM CLR 04/03 A3006 RMK AO2 SLP171 T00440033 51012
 
KMAF - Midland, Texas, USA
Distance from station: SE 111mi, 179km
Updated: Fri, 02-Dec-2022 8:53am MST
Clear
Clear
 Wind from SSW
Wind: SSW 10 mph , 17 km/h
Temperature: 52°F , 11°C
Dew Point: 45°F , 7°C
Humidity: 77%
Barometer: 30.07 inHg , 1018.3 hPa
Clouds: Clear
Visibility: 9 miles , 14 km
2022/12/02 15:53 KMAF 021553Z 20009KT 9SM CLR 11/07 A3007 RMK AO2 SLP168 T01060067
KSRR - Sierra B/Ruidoso, New Mexico, USA
Distance from station: W 127mi, 204km
Updated: Fri, 02-Dec-2022 9:15am MST

 Wind from SW
Wind: SW 29 mph , 46 km/h, Gust: 43 mph , 69 km/h
Temperature: 55°F , 13°C
Dew Point: 10°F , -12°C
Humidity: 16%
Barometer: 30.10 inHg , 1019.3 hPa
Visibility: 10 miles , 16 km
2022/12/02 16:15 KSRR 021615Z AUTO 23025G37KT 10SM 13/M12 A3010 RMK AO2
 
KGDP - Guadalupe Pass, Texas, USA
Distance from station: SW 130mi, 209km
Updated: Fri, 02-Dec-2022 8:51am MST

 
2022/12/02 15:51 KGDP 021551Z AUTO RMK AO2 SLPNO PWINO FZRANO PNO $